sensor_id;sensor_type;location;lat;lon;timestamp;P1;durP1;ratioP1;P2;durP2;ratioP2
60999;SDS011;46879;45.658;11.814;2023-03-01T00:02:59;7.65;;;4.45;;
60999;SDS011;46879;45.658;11.814;2023-03-01T00:08:00;5.47;;;4.03;;
60999;SDS011;46879;45.658;11.814;2023-03-01T00:13:01;9.60;;;4.03;;
60999;SDS011;46879;45.658;11.814;2023-03-01T00:18:02;6.13;;;3.47;;
60999;SDS011;46879;45.658;11.814;2023-03-01T00:23:02;4.68;;;3.35;;
60999;SDS011;46879;45.658;11.814;2023-03-01T00:28:03;4.63;;;3.42;;
60999;SDS011;46879;45.658;11.814;2023-03-01T00:33:04;7.72;;;3.38;;
60999;SDS011;46879;45.658;11.814;2023-03-01T00:38:05;5.43;;;3.53;;
60999;SDS011;46879;45.658;11.814;2023-03-01T00:43:06;6.90;;;3.67;;
60999;SDS011;46879;45.658;11.814;2023-03-01T00:48:06;5.40;;;3.80;;
60999;SDS011;46879;45.658;11.814;2023-03-01T00:53:08;5.45;;;3.45;;
60999;SDS011;46879;45.658;11.814;2023-03-01T00:58:08;7.68;;;3.75;;
60999;SDS011;46879;45.658;11.814;2023-03-01T01:03:09;4.75;;;3.20;;
60999;SDS011;46879;45.658;11.814;2023-03-01T01:08:10;5.47;;;3.33;;
60999;SDS011;46879;45.658;11.814;2023-03-01T01:13:10;5.90;;;3.10;;
60999;SDS011;46879;45.658;11.814;2023-03-01T01:18:11;6.15;;;3.88;;
60999;SDS011;46879;45.658;11.814;2023-03-01T01:23:12;6.50;;;3.40;;
60999;SDS011;46879;45.658;11.814;2023-03-01T01:28:12;4.32;;;3.35;;
60999;SDS011;46879;45.658;11.814;2023-03-01T01:33:13;4.13;;;3.33;;
60999;SDS011;46879;45.658;11.814;2023-03-01T01:38:13;5.30;;;3.80;;
60999;SDS011;46879;45.658;11.814;2023-03-01T01:43:19;5.65;;;3.70;;
60999;SDS011;46879;45.658;11.814;2023-03-01T01:48:39;6.15;;;3.50;;
60999;SDS011;46879;45.658;11.814;2023-03-01T01:53:43;4.05;;;3.50;;
60999;SDS011;46879;45.658;11.814;2023-03-01T01:58:47;7.32;;;3.70;;
60999;SDS011;46879;45.658;11.814;2023-03-01T02:03:49;4.68;;;3.03;;
60999;SDS011;46879;45.658;11.814;2023-03-01T02:08:50;4.35;;;3.58;;
60999;SDS011;46879;45.658;11.814;2023-03-01T02:13:53;5.18;;;3.50;;
60999;SDS011;46879;45.658;11.814;2023-03-01T02:18:54;5.60;;;3.22;;
60999;SDS011;46879;45.658;11.814;2023-03-01T02:23:56;6.28;;;3.72;;
60999;SDS011;46879;45.658;11.814;2023-03-01T02:28:59;4.90;;;3.35;;
60999;SDS011;46879;45.658;11.814;2023-03-01T02:33:59;3.95;;;3.20;;
60999;SDS011;46879;45.658;11.814;2023-03-01T02:39:05;4.15;;;3.15;;
60999;SDS011;46879;45.658;11.814;2023-03-01T02:44:14;4.20;;;3.20;;
60999;SDS011;46879;45.658;11.814;2023-03-01T02:49:18;4.93;;;3.38;;
60999;SDS011;46879;45.658;11.814;2023-03-01T02:54:29;4.50;;;3.53;;
60999;SDS011;46879;45.658;11.814;2023-03-01T02:59:36;4.63;;;3.30;;
60999;SDS011;46879;45.658;11.814;2023-03-01T03:04:42;6.43;;;3.40;;
60999;SDS011;46879;45.658;11.814;2023-03-01T03:09:42;8.57;;;3.25;;
60999;SDS011;46879;45.658;11.814;2023-03-01T03:14:43;4.60;;;3.47;;
60999;SDS011;46879;45.658;11.814;2023-03-01T03:19:44;3.80;;;3.08;;
60999;SDS011;46879;45.658;11.814;2023-03-01T03:24:45;5.03;;;3.47;;
60999;SDS011;46879;45.658;11.814;2023-03-01T03:29:45;7.45;;;3.65;;
60999;SDS011;46879;45.658;11.814;2023-03-01T03:34:46;6.13;;;3.15;;
60999;SDS011;46879;45.658;11.814;2023-03-01T03:39:48;5.40;;;3.40;;
60999;SDS011;46879;45.658;11.814;2023-03-01T03:44:48;4.53;;;3.30;;
60999;SDS011;46879;45.658;11.814;2023-03-01T03:49:49;3.95;;;3.03;;
60999;SDS011;46879;45.658;11.814;2023-03-01T03:54:50;4.68;;;3.10;;
60999;SDS011;46879;45.658;11.814;2023-03-01T03:59:50;4.95;;;3.55;;
60999;SDS011;46879;45.658;11.814;2023-03-01T04:04:51;4.00;;;3.50;;
60999;SDS011;46879;45.658;11.814;2023-03-01T04:09:51;4.93;;;2.85;;
60999;SDS011;46879;45.658;11.814;2023-03-01T04:14:52;3.15;;;2.85;;
60999;SDS011;46879;45.658;11.814;2023-03-01T04:19:53;5.43;;;3.10;;
60999;SDS011;46879;45.658;11.814;2023-03-01T04:24:53;3.47;;;3.00;;
60999;SDS011;46879;45.658;11.814;2023-03-01T04:29:55;5.13;;;2.85;;
60999;SDS011;46879;45.658;11.814;2023-03-01T04:34:55;7.32;;;3.50;;
60999;SDS011;46879;45.658;11.814;2023-03-01T04:39:56;3.67;;;2.78;;
60999;SDS011;46879;45.658;11.814;2023-03-01T04:44:57;3.45;;;3.10;;
60999;SDS011;46879;45.658;11.814;2023-03-01T04:49:57;2.90;;;2.60;;
60999;SDS011;46879;45.658;11.814;2023-03-01T04:54:58;5.30;;;3.13;;
60999;SDS011;46879;45.658;11.814;2023-03-01T04:59:58;3.53;;;2.90;;
60999;SDS011;46879;45.658;11.814;2023-03-01T05:04:59;3.25;;;2.75;;
60999;SDS011;46879;45.658;11.814;2023-03-01T05:10:00;4.85;;;3.00;;
60999;SDS011;46879;45.658;11.814;2023-03-01T05:15:00;3.03;;;2.53;;
60999;SDS011;46879;45.658;11.814;2023-03-01T05:20:07;3.78;;;2.60;;
60999;SDS011;46879;45.658;11.814;2023-03-01T05:25:08;3.80;;;2.72;;
60999;SDS011;46879;45.658;11.814;2023-03-01T05:30:09;3.90;;;2.92;;
60999;SDS011;46879;45.658;11.814;2023-03-01T05:35:13;5.55;;;3.05;;
60999;SDS011;46879;45.658;11.814;2023-03-01T05:40:17;4.05;;;2.97;;
60999;SDS011;46879;45.658;11.814;2023-03-01T05:45:22;4.10;;;3.05;;
60999;SDS011;46879;45.658;11.814;2023-03-01T05:50:26;3.60;;;2.50;;
60999;SDS011;46879;45.658;11.814;2023-03-01T05:55:29;3.97;;;2.60;;
60999;SDS011;46879;45.658;11.814;2023-03-01T06:00:31;8.15;;;2.83;;
60999;SDS011;46879;45.658;11.814;2023-03-01T06:05:32;3.75;;;3.00;;
60999;SDS011;46879;45.658;11.814;2023-03-01T06:10:33;2.95;;;2.45;;
60999;SDS011;46879;45.658;11.814;2023-03-01T06:15:33;2.92;;;2.47;;
60999;SDS011;46879;45.658;11.814;2023-03-01T06:20:34;4.25;;;2.97;;
60999;SDS011;46879;45.658;11.814;2023-03-01T06:25:35;7.60;;;2.97;;
60999;SDS011;46879;45.658;11.814;2023-03-01T06:30:37;7.32;;;2.80;;
60999;SDS011;46879;45.658;11.814;2023-03-01T06:35:37;14.70;;;2.80;;
60999;SDS011;46879;45.658;11.814;2023-03-01T06:40:38;5.78;;;3.38;;
60999;SDS011;46879;45.658;11.814;2023-03-01T06:45:38;6.28;;;2.67;;
60999;SDS011;46879;45.658;11.814;2023-03-01T06:50:39;9.27;;;3.10;;
60999;SDS011;46879;45.658;11.814;2023-03-01T06:55:39;6.28;;;3.97;;
60999;SDS011;46879;45.658;11.814;2023-03-01T07:00:41;6.60;;;2.70;;
60999;SDS011;46879;45.658;11.814;2023-03-01T07:05:43;4.80;;;2.80;;
60999;SDS011;46879;45.658;11.814;2023-03-01T07:10:44;4.90;;;2.88;;
60999;SDS011;46879;45.658;11.814;2023-03-01T07:15:45;8.23;;;3.97;;
60999;SDS011;46879;45.658;11.814;2023-03-01T07:20:45;12.70;;;3.03;;
60999;SDS011;46879;45.658;11.814;2023-03-01T07:25:52;9.18;;;3.65;;
60999;SDS011;46879;45.658;11.814;2023-03-01T07:30:54;9.05;;;2.72;;
60999;SDS011;46879;45.658;11.814;2023-03-01T07:36:01;7.05;;;3.20;;
60999;SDS011;46879;45.658;11.814;2023-03-01T07:46:05;6.45;;;3.47;;
60999;SDS011;46879;45.658;11.814;2023-03-01T07:51:06;6.75;;;2.95;;
60999;SDS011;46879;45.658;11.814;2023-03-01T07:56:09;6.32;;;3.50;;
60999;SDS011;46879;45.658;11.814;2023-03-01T08:01:13;5.38;;;3.17;;
60999;SDS011;46879;45.658;11.814;2023-03-01T08:06:16;5.43;;;3.17;;
60999;SDS011;46879;45.658;11.814;2023-03-01T08:11:17;7.90;;;3.10;;
60999;SDS011;46879;45.658;11.814;2023-03-01T08:16:18;5.63;;;3.03;;
60999;SDS011;46879;45.658;11.814;2023-03-01T08:21:19;6.63;;;2.80;;
60999;SDS011;46879;45.658;11.814;2023-03-01T08:26:20;4.25;;;2.97;;
60999;SDS011;46879;45.658;11.814;2023-03-01T08:36:32;6.88;;;3.22;;
60999;SDS011;46879;45.658;11.814;2023-03-01T08:41:37;5.57;;;3.40;;
60999;SDS011;46879;45.658;11.814;2023-03-01T08:46:39;4.20;;;3.17;;
60999;SDS011;46879;45.658;11.814;2023-03-01T08:51:41;4.35;;;3.10;;
60999;SDS011;46879;45.658;11.814;2023-03-01T08:56:44;5.68;;;2.95;;
60999;SDS011;46879;45.658;11.814;2023-03-01T09:01:45;5.95;;;3.17;;
60999;SDS011;46879;45.658;11.814;2023-03-01T09:06:45;8.30;;;2.88;;
60999;SDS011;46879;45.658;11.814;2023-03-01T09:11:46;7.10;;;3.22;;
60999;SDS011;46879;45.658;11.814;2023-03-01T09:16:47;7.68;;;3.15;;
60999;SDS011;46879;45.658;11.814;2023-03-01T09:21:47;5.03;;;3.05;;
60999;SDS011;46879;45.658;11.814;2023-03-01T09:26:54;6.60;;;2.92;;
60999;SDS011;46879;45.658;11.814;2023-03-01T09:31:56;7.35;;;2.85;;
60999;SDS011;46879;45.658;11.814;2023-03-01T09:36:57;6.65;;;3.05;;
60999;SDS011;46879;45.658;11.814;2023-03-01T09:42:02;5.78;;;3.15;;
60999;SDS011;46879;45.658;11.814;2023-03-01T09:47:04;4.95;;;3.00;;
60999;SDS011;46879;45.658;11.814;2023-03-01T09:57:36;7.70;;;3.03;;
60999;SDS011;46879;45.658;11.814;2023-03-01T10:02:51;5.47;;;3.00;;
60999;SDS011;46879;45.658;11.814;2023-03-01T10:08:19;8.48;;;3.40;;
60999;SDS011;46879;45.658;11.814;2023-03-01T10:13:45;6.53;;;2.95;;
60999;SDS011;46879;45.658;11.814;2023-03-01T10:19:04;5.23;;;2.53;;
60999;SDS011;46879;45.658;11.814;2023-03-01T10:24:16;6.22;;;3.35;;
60999;SDS011;46879;45.658;11.814;2023-03-01T10:29:22;6.40;;;3.05;;
60999;SDS011;46879;45.658;11.814;2023-03-01T10:34:31;5.28;;;2.92;;
60999;SDS011;46879;45.658;11.814;2023-03-01T10:39:34;6.03;;;2.90;;
60999;SDS011;46879;45.658;11.814;2023-03-01T10:44:42;2.80;;;2.50;;
60999;SDS011;46879;45.658;11.814;2023-03-01T11:05:24;3.45;;;2.70;;
60999;SDS011;46879;45.658;11.814;2023-03-01T11:10:32;4.18;;;3.00;;
60999;SDS011;46879;45.658;11.814;2023-03-01T11:15:35;4.28;;;3.08;;
60999;SDS011;46879;45.658;11.814;2023-03-01T11:20:36;7.13;;;2.72;;
60999;SDS011;46879;45.658;11.814;2023-03-01T11:26:20;3.72;;;2.72;;
60999;SDS011;46879;45.658;11.814;2023-03-01T11:31:09;3.20;;;2.45;;
60999;SDS011;46879;45.658;11.814;2023-03-01T11:36:58;3.50;;;2.70;;
60999;SDS011;46879;45.658;11.814;2023-03-01T11:42:00;7.43;;;2.60;;
60999;SDS011;46879;45.658;11.814;2023-03-01T12:09:20;5.22;;;2.80;;
60999;SDS011;46879;45.658;11.814;2023-03-01T12:14:44;13.93;;;2.80;;
60999;SDS011;46879;45.658;11.814;2023-03-01T12:20:14;6.05;;;2.83;;
60999;SDS011;46879;45.658;11.814;2023-03-01T12:41:28;6.25;;;2.92;;
60999;SDS011;46879;45.658;11.814;2023-03-01T12:46:49;14.38;;;2.92;;
60999;SDS011;46879;45.658;11.814;2023-03-01T12:52:33;11.35;;;2.85;;
60999;SDS011;46879;45.658;11.814;2023-03-01T12:57:48;6.03;;;2.88;;
60999;SDS011;46879;45.658;11.814;2023-03-01T13:03:10;5.82;;;3.22;;
60999;SDS011;46879;45.658;11.814;2023-03-01T13:08:27;9.40;;;3.38;;
60999;SDS011;46879;45.658;11.814;2023-03-01T13:13:52;8.43;;;3.13;;
60999;SDS011;46879;45.658;11.814;2023-03-01T13:24:26;7.93;;;3.30;;
60999;SDS011;46879;45.658;11.814;2023-03-01T13:29:44;9.57;;;3.13;;
60999;SDS011;46879;45.658;11.814;2023-03-01T13:34:57;5.07;;;3.03;;
60999;SDS011;46879;45.658;11.814;2023-03-01T13:40:04;11.27;;;3.28;;
60999;SDS011;46879;45.658;11.814;2023-03-01T13:45:48;10.52;;;3.00;;
60999;SDS011;46879;45.658;11.814;2023-03-01T13:50:59;9.77;;;3.20;;
60999;SDS011;46879;45.658;11.814;2023-03-01T13:56:07;7.47;;;3.30;;
60999;SDS011;46879;45.658;11.814;2023-03-01T14:01:28;6.72;;;3.08;;
60999;SDS011;46879;45.658;11.814;2023-03-01T14:06:32;12.15;;;3.42;;
60999;SDS011;46879;45.658;11.814;2023-03-01T14:22:32;7.10;;;3.15;;
60999;SDS011;46879;45.658;11.814;2023-03-01T14:27:40;10.68;;;3.20;;
60999;SDS011;46879;45.658;11.814;2023-03-01T14:32:42;4.00;;;2.33;;
60999;SDS011;46879;45.658;11.814;2023-03-01T14:37:51;9.10;;;3.33;;
60999;SDS011;46879;45.658;11.814;2023-03-01T14:42:52;5.45;;;3.05;;
60999;SDS011;46879;45.658;11.814;2023-03-01T14:47:55;7.75;;;3.30;;
60999;SDS011;46879;45.658;11.814;2023-03-01T14:52:59;6.60;;;3.28;;
60999;SDS011;46879;45.658;11.814;2023-03-01T14:58:04;5.18;;;3.42;;
60999;SDS011;46879;45.658;11.814;2023-03-01T15:03:18;11.55;;;3.15;;
60999;SDS011;46879;45.658;11.814;2023-03-01T15:08:27;6.45;;;3.05;;
60999;SDS011;46879;45.658;11.814;2023-03-01T15:13:33;5.20;;;2.80;;
60999;SDS011;46879;45.658;11.814;2023-03-01T15:18:35;4.95;;;2.95;;
60999;SDS011;46879;45.658;11.814;2023-03-01T15:23:37;6.40;;;3.10;;
60999;SDS011;46879;45.658;11.814;2023-03-01T15:28:40;5.60;;;3.38;;
60999;SDS011;46879;45.658;11.814;2023-03-01T15:33:48;5.88;;;3.08;;
60999;SDS011;46879;45.658;11.814;2023-03-01T15:38:54;6.47;;;2.90;;
60999;SDS011;46879;45.658;11.814;2023-03-01T15:43:57;7.75;;;3.30;;
60999;SDS011;46879;45.658;11.814;2023-03-01T15:49:01;7.43;;;2.78;;
60999;SDS011;46879;45.658;11.814;2023-03-01T15:54:17;5.07;;;3.10;;
60999;SDS011;46879;45.658;11.814;2023-03-01T15:59:19;7.53;;;2.92;;
60999;SDS011;46879;45.658;11.814;2023-03-01T16:04:22;5.97;;;2.92;;
60999;SDS011;46879;45.658;11.814;2023-03-01T16:09:23;10.25;;;3.13;;
60999;SDS011;46879;45.658;11.814;2023-03-01T16:14:25;6.57;;;2.47;;
60999;SDS011;46879;45.658;11.814;2023-03-01T16:19:25;7.63;;;3.03;;
60999;SDS011;46879;45.658;11.814;2023-03-01T16:24:26;8.98;;;2.97;;
60999;SDS011;46879;45.658;11.814;2023-03-01T16:29:26;3.22;;;2.40;;
60999;SDS011;46879;45.658;11.814;2023-03-01T16:34:29;4.97;;;2.63;;
60999;SDS011;46879;45.658;11.814;2023-03-01T16:39:29;4.68;;;2.72;;
60999;SDS011;46879;45.658;11.814;2023-03-01T16:44:30;2.75;;;2.45;;
60999;SDS011;46879;45.658;11.814;2023-03-01T16:49:30;4.97;;;2.63;;
60999;SDS011;46879;45.658;11.814;2023-03-01T16:54:31;3.65;;;2.40;;
60999;SDS011;46879;45.658;11.814;2023-03-01T16:59:31;5.22;;;2.90;;
60999;SDS011;46879;45.658;11.814;2023-03-01T17:04:32;4.85;;;2.83;;
60999;SDS011;46879;45.658;11.814;2023-03-01T17:09:36;3.92;;;2.50;;
60999;SDS011;46879;45.658;11.814;2023-03-01T17:14:37;3.60;;;2.60;;
60999;SDS011;46879;45.658;11.814;2023-03-01T17:19:38;4.88;;;2.70;;
60999;SDS011;46879;45.658;11.814;2023-03-01T17:24:41;4.38;;;2.70;;
60999;SDS011;46879;45.658;11.814;2023-03-01T17:29:43;5.10;;;3.00;;
60999;SDS011;46879;45.658;11.814;2023-03-01T17:34:43;5.82;;;2.72;;
60999;SDS011;46879;45.658;11.814;2023-03-01T17:39:45;3.40;;;2.53;;
60999;SDS011;46879;45.658;11.814;2023-03-01T17:44:45;2.38;;;1.88;;
60999;SDS011;46879;45.658;11.814;2023-03-01T17:49:46;2.85;;;2.55;;
60999;SDS011;46879;45.658;11.814;2023-03-01T17:54:47;4.65;;;2.75;;
60999;SDS011;46879;45.658;11.814;2023-03-01T17:59:47;3.45;;;2.65;;
60999;SDS011;46879;45.658;11.814;2023-03-01T18:04:48;4.22;;;2.45;;
60999;SDS011;46879;45.658;11.814;2023-03-01T18:09:48;4.30;;;2.88;;
60999;SDS011;46879;45.658;11.814;2023-03-01T18:14:49;3.30;;;2.53;;
60999;SDS011;46879;45.658;11.814;2023-03-01T18:19:52;5.20;;;2.85;;
60999;SDS011;46879;45.658;11.814;2023-03-01T18:24:55;4.40;;;2.25;;
60999;SDS011;46879;45.658;11.814;2023-03-01T18:29:55;5.13;;;2.78;;
60999;SDS011;46879;45.658;11.814;2023-03-01T18:34:56;2.88;;;2.20;;
60999;SDS011;46879;45.658;11.814;2023-03-01T18:39:57;4.80;;;2.80;;
60999;SDS011;46879;45.658;11.814;2023-03-01T18:44:57;3.80;;;2.50;;
60999;SDS011;46879;45.658;11.814;2023-03-01T18:49:58;3.88;;;2.38;;
60999;SDS011;46879;45.658;11.814;2023-03-01T18:54:58;4.68;;;2.72;;
60999;SDS011;46879;45.658;11.814;2023-03-01T18:59:59;3.15;;;2.50;;
60999;SDS011;46879;45.658;11.814;2023-03-01T19:05:00;3.10;;;2.28;;
60999;SDS011;46879;45.658;11.814;2023-03-01T19:10:00;2.90;;;2.50;;
60999;SDS011;46879;45.658;11.814;2023-03-01T19:15:01;8.77;;;2.40;;
60999;SDS011;46879;45.658;11.814;2023-03-01T19:20:04;16.27;;;2.75;;
60999;SDS011;46879;45.658;11.814;2023-03-01T19:25:05;24.98;;;3.10;;
60999;SDS011;46879;45.658;11.814;2023-03-01T19:30:07;11.93;;;2.60;;
60999;SDS011;46879;45.658;11.814;2023-03-01T19:35:08;5.20;;;2.53;;
60999;SDS011;46879;45.658;11.814;2023-03-01T19:40:09;11.90;;;2.85;;
60999;SDS011;46879;45.658;11.814;2023-03-01T19:45:10;8.85;;;3.25;;
60999;SDS011;46879;45.658;11.814;2023-03-01T19:50:11;5.82;;;3.00;;
60999;SDS011;46879;45.658;11.814;2023-03-01T19:55:12;7.35;;;3.00;;
60999;SDS011;46879;45.658;11.814;2023-03-01T20:00:13;6.95;;;2.85;;
60999;SDS011;46879;45.658;11.814;2023-03-01T20:05:15;4.53;;;2.70;;
60999;SDS011;46879;45.658;11.814;2023-03-01T20:10:16;5.90;;;3.28;;
60999;SDS011;46879;45.658;11.814;2023-03-01T20:15:17;10.10;;;2.75;;
60999;SDS011;46879;45.658;11.814;2023-03-01T20:20:18;6.88;;;2.85;;
60999;SDS011;46879;45.658;11.814;2023-03-01T20:25:19;6.22;;;2.70;;
60999;SDS011;46879;45.658;11.814;2023-03-01T20:30:20;8.77;;;3.03;;
60999;SDS011;46879;45.658;11.814;2023-03-01T20:35:21;4.38;;;2.58;;
60999;SDS011;46879;45.658;11.814;2023-03-01T20:40:22;5.13;;;2.88;;
60999;SDS011;46879;45.658;11.814;2023-03-01T20:45:27;5.57;;;2.60;;
60999;SDS011;46879;45.658;11.814;2023-03-01T20:50:27;4.32;;;2.90;;
60999;SDS011;46879;45.658;11.814;2023-03-01T20:55:28;6.43;;;2.95;;
60999;SDS011;46879;45.658;11.814;2023-03-01T21:00:28;3.10;;;2.40;;
60999;SDS011;46879;45.658;11.814;2023-03-01T21:05:29;7.30;;;2.60;;
60999;SDS011;46879;45.658;11.814;2023-03-01T21:10:31;3.50;;;2.50;;
60999;SDS011;46879;45.658;11.814;2023-03-01T21:15:32;6.47;;;2.90;;
60999;SDS011;46879;45.658;11.814;2023-03-01T21:20:32;5.25;;;2.50;;
60999;SDS011;46879;45.658;11.814;2023-03-01T21:25:33;5.65;;;2.67;;
60999;SDS011;46879;45.658;11.814;2023-03-01T21:30:34;7.65;;;2.78;;
60999;SDS011;46879;45.658;11.814;2023-03-01T21:35:34;5.05;;;2.47;;
60999;SDS011;46879;45.658;11.814;2023-03-01T21:40:35;4.05;;;2.97;;
60999;SDS011;46879;45.658;11.814;2023-03-01T21:45:36;4.30;;;2.53;;
60999;SDS011;46879;45.658;11.814;2023-03-01T21:50:36;4.88;;;2.65;;
60999;SDS011;46879;45.658;11.814;2023-03-01T21:55:37;5.22;;;2.80;;
60999;SDS011;46879;45.658;11.814;2023-03-01T22:00:46;5.30;;;2.80;;
60999;SDS011;46879;45.658;11.814;2023-03-01T22:05:57;2.85;;;2.50;;
60999;SDS011;46879;45.658;11.814;2023-03-01T22:11:00;7.00;;;2.78;;
60999;SDS011;46879;45.658;11.814;2023-03-01T22:16:01;4.50;;;2.85;;
60999;SDS011;46879;45.658;11.814;2023-03-01T22:21:05;2.78;;;2.53;;
60999;SDS011;46879;45.658;11.814;2023-03-01T22:26:07;9.40;;;2.55;;
60999;SDS011;46879;45.658;11.814;2023-03-01T22:31:36;2.88;;;2.25;;
60999;SDS011;46879;45.658;11.814;2023-03-01T22:36:37;9.13;;;2.60;;
60999;SDS011;46879;45.658;11.814;2023-03-01T22:41:39;5.03;;;2.45;;
60999;SDS011;46879;45.658;11.814;2023-03-01T22:46:43;4.63;;;2.28;;
60999;SDS011;46879;45.658;11.814;2023-03-01T22:51:43;5.85;;;3.00;;
60999;SDS011;46879;45.658;11.814;2023-03-01T22:56:46;4.47;;;2.63;;
60999;SDS011;46879;45.658;11.814;2023-03-01T23:01:47;4.03;;;2.55;;
60999;SDS011;46879;45.658;11.814;2023-03-01T23:06:48;5.68;;;2.40;;
60999;SDS011;46879;45.658;11.814;2023-03-01T23:11:50;3.20;;;2.58;;
60999;SDS011;46879;45.658;11.814;2023-03-01T23:16:52;4.80;;;2.47;;
60999;SDS011;46879;45.658;11.814;2023-03-01T23:21:53;3.33;;;2.58;;
60999;SDS011;46879;45.658;11.814;2023-03-01T23:26:53;4.68;;;2.60;;
60999;SDS011;46879;45.658;11.814;2023-03-01T23:31:55;5.50;;;2.90;;
60999;SDS011;46879;45.658;11.814;2023-03-01T23:36:56;4.05;;;2.33;;
60999;SDS011;46879;45.658;11.814;2023-03-01T23:41:57;4.25;;;2.63;;
60999;SDS011;46879;45.658;11.814;2023-03-01T23:46:58;3.00;;;2.22;;
60999;SDS011;46879;45.658;11.814;2023-03-01T23:51:58;3.70;;;2.55;;
60999;SDS011;46879;45.658;11.814;2023-03-01T23:57:00;3.03;;;2.25;;
